Time;durP1;ratioP1;P1;durP2;ratioP2;P2;SDS_P1;SDS_P2;PMS_P1;PMS_P2;Temp;Humidity;BMP_temperature;BMP_pressure;BME280_temperature;BME280_humidity;BME280_pressure;Samples;Min_cycle;Max_cycle;Signal;HPM_P1;HPM_P2
2023/01/22 00:01:48;;;;;;;21.73;10.38;;;;;;;-2.26;100.00;99760.16;5105944;28;20058;-77
2023/01/22 00:04:15;;;;;;;18.63;9.43;;;;;;;-2.28;100.00;99770.91;5104668;28;20048;-77
2023/01/22 00:06:43;;;;;;;22.60;11.20;;;;;;;-2.38;100.00;99770.59;5106218;27;20104;-77
2023/01/22 00:09:09;;;;;;;21.30;10.40;;;;;;;-2.23;100.00;99779.50;5104056;27;20398;-77
2023/01/22 00:11:36;;;;;;;21.98;10.45;;;;;;;-2.16;100.00;99777.34;5108565;27;20047;-77
2023/01/22 00:14:02;;;;;;;21.73;10.57;;;;;;;-2.14;100.00;99770.09;5107667;27;20047;-77
2023/01/22 00:16:29;;;;;;;19.48;10.93;;;;;;;-2.40;100.00;99759.16;5103265;27;20074;-77
2023/01/22 00:18:55;;;;;;;24.90;11.90;;;;;;;-2.32;100.00;99756.91;5098180;27;20044;-77
2023/01/22 00:21:23;;;;;;;26.33;10.57;;;;;;;-2.18;100.00;99763.25;5111408;28;20047;-77
2023/01/22 00:23:51;;;;;;;21.88;10.68;;;;;;;-2.23;100.00;99759.97;5111033;27;20054;-77
2023/01/22 00:26:17;;;;;;;19.65;10.38;;;;;;;-2.22;100.00;99749.25;5111319;27;20048;-77
2023/01/22 00:28:45;;;;;;;21.60;9.30;;;;;;;-2.27;100.00;99737.13;5103158;27;20130;-77
2023/01/22 00:31:12;;;;;;;22.02;11.13;;;;;;;-2.20;100.00;99755.34;5110977;27;20112;-77
2023/01/22 00:33:40;;;;;;;21.05;9.65;;;;;;;-2.16;100.00;99766.69;5105452;27;20079;-77
2023/01/22 00:36:09;;;;;;;22.60;11.35;;;;;;;-2.10;100.00;99762.81;5109786;27;20130;-77
2023/01/22 00:38:35;;;;;;;21.08;9.77;;;;;;;-2.35;100.00;99746.44;5100163;27;20047;-77
2023/01/22 00:41:05;;;;;;;22.63;8.88;;;;;;;-2.21;100.00;99760.78;5105816;27;20094;-77
2023/01/22 00:43:33;;;;;;;26.60;10.35;;;;;;;-2.29;100.00;99739.03;5107563;27;20054;-77
2023/01/22 00:46:00;;;;;;;17.75;8.48;;;;;;;-2.32;100.00;99756.03;5099418;27;20052;-77
2023/01/22 00:48:26;;;;;;;27.83;12.32;;;;;;;-2.18;100.00;99758.78;5097437;27;20058;-77
2023/01/22 00:50:53;;;;;;;22.98;11.00;;;;;;;-2.16;100.00;99756.03;5110096;28;20044;-77
2023/01/22 00:53:19;;;;;;;22.85;11.52;;;;;;;-2.15;100.00;99747.94;5106783;27;20419;-77
2023/01/22 00:55:53;;;;;;;22.83;9.95;;;;;;;-2.12;100.00;99749.56;5111014;28;20054;-77
2023/01/22 00:58:21;;;;;;;27.20;11.00;;;;;;;-2.17;100.00;99752.50;5111104;27;20058;-77
2023/01/22 01:00:48;;;;;;;22.83;9.35;;;;;;;-2.26;100.00;99744.19;5108035;27;20390;-77
2023/01/22 01:03:29;;;;;;;22.35;9.82;;;;;;;-2.26;100.00;99739.69;5114049;27;20050;-77
2023/01/22 01:06:02;;;;;;;27.48;10.52;;;;;;;-2.36;100.00;99738.53;5097020;27;20044;-78
2023/01/22 01:08:30;;;;;;;17.60;9.93;;;;;;;-2.29;100.00;99747.88;5107495;27;20058;-77
2023/01/22 01:10:59;;;;;;;24.77;10.75;;;;;;;-2.23;100.00;99752.88;5099952;28;20048;-77
2023/01/22 01:13:27;;;;;;;25.38;10.93;;;;;;;-2.19;100.00;99751.72;5108904;28;20048;-78
2023/01/22 01:16:00;;;;;;;24.92;11.55;;;;;;;-2.16;100.00;99756.03;5111618;28;20497;-77
2023/01/22 01:18:26;;;;;;;20.20;9.80;;;;;;;-2.21;100.00;99747.44;5117197;27;20108;-77
2023/01/22 01:20:54;;;;;;;25.02;11.65;;;;;;;-2.18;100.00;99744.59;5104270;28;20040;-77
2023/01/22 01:23:21;;;;;;;28.95;11.35;;;;;;;-2.17;100.00;99746.31;5107047;28;20036;-78
2023/01/22 01:25:47;;;;;;;20.60;9.90;;;;;;;-2.18;100.00;99752.59;5111700;27;20043;-77
2023/01/22 01:28:14;;;;;;;27.13;12.38;;;;;;;-2.42;100.00;99722.91;5113802;27;20047;-77
2023/01/22 01:30:42;;;;;;;18.58;10.18;;;;;;;-2.18;100.00;99758.78;5100308;28;20513;-77
2023/01/22 01:33:08;;;;;;;26.48;11.15;;;;;;;-2.10;100.00;99758.31;5108257;27;20079;-77
2023/01/22 01:35:35;;;;;;;26.73;11.05;;;;;;;-2.09;100.00;99751.19;5105555;28;20495;-77
2023/01/22 01:38:01;;;;;;;26.17;11.70;;;;;;;-2.16;100.00;99745.38;5104070;27;20046;-77
2023/01/22 01:40:28;;;;;;;20.20;10.30;;;;;;;-2.18;100.00;99747.28;5110320;27;20047;-77
2023/01/22 01:42:55;;;;;;;22.20;10.40;;;;;;;-2.13;100.00;99759.34;5104489;28;20075;-77
2023/01/22 01:45:25;;;;;;;21.98;10.70;;;;;;;-2.17;100.00;99743.63;5107215;28;20052;-77
2023/01/22 01:47:54;;;;;;;;;;;;;;;-2.13;100.00;99747.84;5103987;27;20135;-77
2023/01/22 01:50:25;;;;;;;20.58;8.80;;;;;;;-2.29;100.00;99717.72;5099221;27;19942;-77
2023/01/22 01:52:52;;;;;;;20.70;10.25;;;;;;;-2.34;100.00;99731.31;5108154;27;20040;-77
2023/01/22 01:55:24;;;;;;;23.08;10.98;;;;;;;-2.22;100.00;99737.72;5104959;27;20051;-77
2023/01/22 01:57:51;;;;;;;18.92;10.52;;;;;;;-2.23;100.00;99739.56;5105626;27;20059;-77
2023/01/22 02:00:19;;;;;;;27.50;10.82;;;;;;;-2.25;100.00;99732.59;5102790;28;20055;-77
2023/01/22 02:02:46;;;;;;;21.10;9.85;;;;;;;-2.25;100.00;99722.78;5109141;27;20054;-77
2023/01/22 02:05:14;;;;;;;21.75;10.27;;;;;;;-2.20;100.00;99733.16;5106894;27;20054;-77
2023/01/22 02:07:40;;;;;;;22.02;10.57;;;;;;;-2.09;100.00;99741.41;5106467;28;20455;-77
2023/01/22 02:10:08;;;;;;;20.73;11.35;;;;;;;-2.14;100.00;99733.69;5105097;27;20522;-77
2023/01/22 02:12:34;;;;;;;52.70;13.48;;;;;;;-2.09;100.00;99743.19;5105864;28;20051;-77
2023/01/22 02:15:03;;;;;;;22.30;12.10;;;;;;;-2.10;100.00;99742.34;5109626;27;20040;-77
2023/01/22 02:17:29;;;;;;;23.02;11.38;;;;;;;-2.07;100.00;99746.63;5107041;27;20112;-77
2023/01/22 02:19:56;;;;;;;22.15;9.77;;;;;;;-2.16;100.00;99745.38;5103894;27;20047;-77
2023/01/22 02:22:27;;;;;;;25.42;11.85;;;;;;;-2.18;100.00;99733.94;5098795;27;20052;-77
2023/01/22 02:24:54;;;;;;;18.67;9.35;;;;;;;-2.06;100.00;99751.00;5110574;27;20046;-77
2023/01/22 02:27:21;;;;;;;26.17;11.68;;;;;;;-2.13;100.00;99730.03;5100801;27;20057;-77
2023/01/22 02:29:47;;;;;;;22.35;9.90;;;;;;;-2.24;100.00;99723.63;5103624;27;20054;-77
2023/01/22 02:32:14;;;;;;;22.30;10.65;;;;;;;-2.11;100.00;99734.44;5105303;27;20040;-77
2023/01/22 02:34:41;;;;;;;23.17;10.82;;;;;;;-2.17;100.00;99733.88;5103795;28;20073;-77
2023/01/22 02:37:07;;;;;;;26.92;9.75;;;;;;;-2.11;100.00;99724.63;5108441;27;20380;-77
2023/01/22 02:39:35;;;;;;;20.23;10.45;;;;;;;-2.10;100.00;99736.16;5109023;28;20130;-77
2023/01/22 02:42:04;;;;;;;26.67;11.52;;;;;;;-2.13;100.00;99737.19;5102946;28;20521;-77
2023/01/22 02:44:30;;;;;;;22.45;10.55;;;;;;;-2.06;100.00;99746.53;5108484;27;20051;-77
2023/01/22 02:46:57;;;;;;;20.65;10.68;;;;;;;-1.98;100.00;99746.09;5097962;28;20400;-77
2023/01/22 02:49:23;;;;;;;20.02;10.07;;;;;;;-2.12;100.00;99730.94;5105330;27;20063;-77
2023/01/22 02:51:50;;;;;;;22.30;11.73;;;;;;;-2.10;100.00;99736.16;5105336;27;20051;-77
2023/01/22 02:54:17;;;;;;;22.88;10.65;;;;;;;-2.16;100.00;99734.72;5106650;27;20047;-77
2023/01/22 02:56:44;;;;;;;21.83;9.80;;;;;;;-2.07;100.00;99744.81;5108207;28;20043;-77
2023/01/22 02:59:11;;;;;;;20.52;9.90;;;;;;;-2.05;100.00;99745.56;5109285;27;20051;-77
2023/01/22 03:01:38;;;;;;;22.58;10.00;;;;;;;-1.97;100.00;99740.66;5107024;28;20351;-77
2023/01/22 03:04:09;;;;;;;20.65;10.20;;;;;;;-1.98;100.00;99738.94;5108167;27;20044;-77
2023/01/22 03:06:37;;;;;;;22.33;10.63;;;;;;;-1.94;100.00;99731.66;5107644;27;20054;-77
2023/01/22 03:09:04;;;;;;;17.80;8.77;;;;;;;-1.98;100.00;99744.28;5108542;28;20043;-77
2023/01/22 03:11:34;;;;;;;19.05;9.82;;;;;;;-2.01;100.00;99722.28;5107995;28;20167;-77
2023/01/22 03:22:16;;;;;;;21.27;10.10;;;;;;;-2.00;100.00;99730.19;5101303;28;20050;-78
2023/01/22 03:24:42;;;;;;;21.17;9.93;;;;;;;-1.95;100.00;99732.59;5101474;28;20047;-78
2023/01/22 03:27:10;;;;;;;19.17;10.55;;;;;;;-1.88;100.00;99715.28;5108446;28;20499;-77
2023/01/22 03:29:38;;;;;;;22.25;10.27;;;;;;;-1.87;100.00;99721.47;5110619;28;20040;-77
2023/01/22 03:32:04;;;;;;;27.42;11.30;;;;;;;-2.08;100.00;99697.81;5107911;28;20050;-77
2023/01/22 03:34:31;;;;;;;23.77;10.90;;;;;;;-2.00;100.00;99692.03;5110341;28;20068;-77
2023/01/22 03:36:58;;;;;;;19.58;9.43;;;;;;;-1.91;100.00;99723.47;5107190;28;20066;-77
2023/01/22 03:39:25;;;;;;;19.33;9.68;;;;;;;-1.87;100.00;99727.63;5109835;28;20511;-77
2023/01/22 03:41:52;;;;;;;28.10;11.50;;;;;;;-1.87;100.00;99729.44;5110945;27;20054;-77
2023/01/22 03:44:18;;;;;;;22.05;10.02;;;;;;;-1.96;100.00;99722.88;5111091;28;20047;-77
2023/01/22 03:46:46;;;;;;;18.80;10.30;;;;;;;-1.98;100.00;99725.63;5108853;28;20042;-77
2023/01/22 03:49:13;;;;;;;23.20;10.57;;;;;;;-2.03;100.00;99714.38;5110699;28;20414;-77
2023/01/22 03:51:40;;;;;;;22.40;11.73;;;;;;;-2.04;100.00;99717.16;5113590;28;20043;-77
2023/01/22 03:54:07;;;;;;;25.55;11.07;;;;;;;-2.01;100.00;99722.28;5112415;28;20037;-77
2023/01/22 03:56:33;;;;;;;25.23;10.70;;;;;;;-1.97;100.00;99726.50;5105763;28;20048;-77
2023/01/22 03:59:00;;;;;;;22.92;10.75;;;;;;;-1.98;100.00;99730.09;5112953;28;20084;-77
2023/01/22 04:01:28;;;;;;;22.88;10.90;;;;;;;-2.06;100.00;99722.56;5109296;28;20056;-77
2023/01/22 04:03:56;;;;;;;24.70;11.82;;;;;;;-1.97;100.00;99729.16;5112655;28;20044;-77
2023/01/22 04:06:24;;;;;;;25.83;11.13;;;;;;;-1.99;100.00;99736.38;5110793;28;20054;-77
2023/01/22 04:08:53;;;;;;;24.45;11.20;;;;;;;-2.08;100.00;99712.94;5114567;28;20212;-77
2023/01/22 04:11:19;;;;;;;22.25;10.82;;;;;;;-2.07;100.00;99722.66;5111633;28;20075;-77
2023/01/22 04:13:46;;;;;;;17.77;9.23;;;;;;;-1.99;100.00;99720.38;5113237;28;20118;-77
2023/01/22 04:16:14;;;;;;;18.70;9.60;;;;;;;-2.18;100.00;99726.81;5112645;28;20474;-77
2023/01/22 04:18:41;;;;;;;20.25;10.10;;;;;;;-2.08;100.00;99735.09;5114536;28;20047;-77
2023/01/22 04:21:09;;;;;;;20.05;8.98;;;;;;;-2.11;100.00;99729.94;5109510;28;20044;-77
2023/01/22 04:23:35;;;;;;;19.80;9.88;;;;;;;-1.94;100.00;99741.41;5112103;27;20055;-77
2023/01/22 04:26:02;;;;;;;21.52;9.50;;;;;;;-2.15;100.00;99718.63;5109101;28;20434;-78
2023/01/22 04:28:29;;;;;;;20.17;10.43;;;;;;;-2.07;100.00;99731.50;5110225;28;20039;-78
2023/01/22 04:30:55;;;;;;;25.67;10.30;;;;;;;-2.11;100.00;99726.44;5111236;28;20051;-78
2023/01/22 04:33:22;;;;;;;26.73;11.00;;;;;;;-2.05;100.00;99720.75;5108252;28;20082;-78
2023/01/22 04:35:50;;;;;;;24.00;11.80;;;;;;;-2.03;100.00;99732.16;5113884;28;20054;-77
2023/01/22 04:38:18;;;;;;;23.55;10.07;;;;;;;-2.17;100.00;99717.88;5111119;28;20080;-77
2023/01/22 04:40:45;;;;;;;22.52;9.98;;;;;;;-2.08;100.00;99724.44;5114011;28;20059;-77
2023/01/22 04:43:11;;;;;;;19.10;9.30;;;;;;;-1.94;100.00;99733.44;5110312;28;20145;-77
2023/01/22 04:45:38;;;;;;;24.05;10.70;;;;;;;-1.93;100.00;99730.66;5104347;28;20094;-77
2023/01/22 04:48:07;;;;;;;25.30;10.75;;;;;;;-1.97;100.00;99742.50;5106079;28;20427;-77
2023/01/22 04:50:34;;;;;;;21.73;10.80;;;;;;;-1.96;100.00;99729.06;5112422;28;20052;-77
2023/01/22 04:53:01;;;;;;;22.00;10.85;;;;;;;-2.01;100.00;99738.28;5108131;28;20047;-77
2023/01/22 04:55:30;;;;;;;27.38;10.85;;;;;;;-2.05;100.00;99720.75;5113728;28;20048;-77
2023/01/22 04:57:58;;;;;;;25.10;11.68;;;;;;;-2.00;100.00;99740.84;5109765;28;20398;-77
2023/01/22 05:00:25;;;;;;;23.67;11.25;;;;;;;-1.92;100.00;99728.88;5111766;28;20046;-77
2023/01/22 05:02:56;;;;;;;20.73;11.70;;;;;;;-1.87;100.00;99764.09;5110965;28;20044;-77
2023/01/22 05:05:22;;;;;;;27.77;10.77;;;;;;;-1.88;100.00;99757.03;5113699;28;20048;-77
2023/01/22 05:07:49;;;;;;;19.80;10.32;;;;;;;-1.95;100.00;99751.22;5109623;27;20047;-77
2023/01/22 05:10:16;;;;;;;24.63;11.25;;;;;;;-1.91;100.00;99765.22;5106627;28;20044;-77
2023/01/22 05:12:44;;;;;;;24.00;12.23;;;;;;;-1.82;100.00;99757.56;5104766;28;20490;-77
2023/01/22 05:15:11;;;;;;;22.90;11.02;;;;;;;-1.94;100.00;99766.28;5111979;28;20052;-77
2023/01/22 05:17:37;;;;;;;36.67;15.60;;;;;;;-1.92;100.00;99761.72;5111895;28;20051;-77
2023/01/22 05:20:04;;;;;;;27.88;15.70;;;;;;;-1.92;100.00;99752.88;5103785;28;20055;-77
2023/01/22 05:22:31;;;;;;;24.65;11.98;;;;;;;-1.91;100.00;99763.44;5109287;28;20055;-77
2023/01/22 05:24:57;;;;;;;28.70;12.68;;;;;;;-1.98;100.00;99757.59;5105303;28;20407;-77
2023/01/22 05:27:24;;;;;;;21.63;11.35;;;;;;;-1.90;100.00;99775.78;5102765;28;20043;-77
2023/01/22 05:29:52;;;;;;;80.28;38.80;;;;;;;-1.91;100.00;99778.56;5107574;27;20043;-77
2023/01/22 05:32:18;;;;;;;27.60;14.50;;;;;;;-2.07;100.00;99767.94;5111197;28;20048;-77
2023/01/22 05:34:45;;;;;;;24.02;11.95;;;;;;;-2.04;100.00;99763.28;5110040;27;20040;-77
2023/01/22 05:37:11;;;;;;;22.65;11.27;;;;;;;-2.07;100.00;99758.13;5110306;28;20043;-77
2023/01/22 05:39:38;;;;;;;26.63;12.13;;;;;;;-2.08;100.00;99759.09;5111081;28;20952;-77
2023/01/22 05:42:04;;;;;;;20.83;11.27;;;;;;;-1.86;100.00;99788.00;5102900;28;20040;-77
2023/01/22 05:44:31;;;;;;;20.73;11.05;;;;;;;-1.86;100.00;99776.50;5104248;28;20052;-77
2023/01/22 05:46:59;;;;;;;22.55;10.60;;;;;;;-2.00;100.00;99754.19;5112139;28;20044;-78
2023/01/22 05:49:25;;;;;;;22.88;10.02;;;;;;;-2.13;100.00;99756.69;5113847;28;20047;-77
2023/01/22 05:51:52;;;;;;;24.52;10.57;;;;;;;-1.94;100.00;99779.59;5108548;28;20047;-77
2023/01/22 05:54:18;;;;;;;21.80;10.38;;;;;;;-1.94;100.00;99784.06;5093308;28;20048;-77
2023/01/22 05:56:45;;;;;;;21.75;10.90;;;;;;;-2.05;100.00;99780.22;5117272;27;20046;-77
2023/01/22 05:59:11;;;;;;;20.65;9.93;;;;;;;-1.86;100.00;99795.16;5114862;27;20048;-77
2023/01/22 06:01:38;;;;;;;23.02;11.68;;;;;;;-1.96;100.00;99773.50;5111633;27;20056;-77
2023/01/22 06:04:06;;;;;;;25.58;11.02;;;;;;;-1.89;100.00;99787.34;5108308;28;20495;-77
2023/01/22 06:06:32;;;;;;;26.52;12.48;;;;;;;-2.04;100.00;99771.28;5113149;28;20050;-78
2023/01/22 06:08:59;;;;;;;25.08;11.23;;;;;;;-1.85;100.00;99792.38;5110716;28;20068;-77
2023/01/22 06:11:26;;;;;;;23.52;11.20;;;;;;;-2.01;100.00;99780.91;5094169;28;20051;-77
2023/01/22 06:13:52;;;;;;;24.95;12.50;;;;;;;-1.88;100.00;99802.34;5108743;28;20409;-77
2023/01/22 06:16:19;;;;;;;23.73;11.88;;;;;;;-2.02;100.00;99789.84;5112086;28;20054;-77
2023/01/22 06:18:45;;;;;;;25.85;11.32;;;;;;;-1.89;100.00;99806.84;5109211;28;20047;-77
2023/01/22 06:21:13;;;;;;;25.95;11.43;;;;;;;-2.08;100.00;99793.72;5109433;27;20043;-77
2023/01/22 06:23:40;;;;;;;23.88;11.30;;;;;;;-1.95;100.00;99796.53;5095421;28;20046;-77
2023/01/22 06:26:06;;;;;;;22.08;11.15;;;;;;;-1.96;100.00;99795.69;5110362;28;20032;-77
2023/01/22 06:28:33;;;;;;;22.00;11.80;;;;;;;-1.98;100.00;99799.38;5109967;28;20047;-77
2023/01/22 06:31:04;;;;;;;29.77;12.88;;;;;;;-1.98;100.00;99796.72;5107885;27;20395;-77
2023/01/22 06:33:32;;;;;;;22.02;12.07;;;;;;;-1.86;100.00;99821.81;5108592;27;20075;-77
2023/01/22 06:35:58;;;;;;;24.88;12.57;;;;;;;-1.98;100.00;99797.56;5110697;28;20115;-77
2023/01/22 06:38:26;;;;;;;25.42;12.18;;;;;;;-1.84;100.00;99812.75;5110103;28;20047;-77
2023/01/22 06:40:53;;;;;;;28.95;13.10;;;;;;;-1.83;100.00;99816.28;5109971;28;20046;-77
2023/01/22 06:43:20;;;;;;;28.88;12.18;;;;;;;-1.88;100.00;99811.22;5107730;28;20395;-77
2023/01/22 06:45:47;;;;;;;27.13;13.98;;;;;;;-1.89;100.00;99803.31;5110098;28;20051;-77
2023/01/22 06:48:13;;;;;;;25.27;12.95;;;;;;;-1.84;100.00;99819.91;5110211;28;20051;-77
2023/01/22 06:50:40;;;;;;;23.55;12.50;;;;;;;-1.93;100.00;99809.78;5110062;28;20051;-77
2023/01/22 06:53:06;;;;;;;27.95;12.73;;;;;;;-1.96;100.00;99819.69;5107521;28;20054;-77
2023/01/22 06:55:34;;;;;;;23.35;11.60;;;;;;;-1.89;100.00;99809.50;5109895;28;20065;-77
2023/01/22 06:58:01;;;;;;;24.58;10.80;;;;;;;-1.90;100.00;99818.44;5105483;28;20048;-77
2023/01/22 07:00:27;;;;;;;25.20;12.90;;;;;;;-1.78;100.00;99827.53;5109895;28;20055;-77
2023/01/22 07:02:54;;;;;;;24.30;12.60;;;;;;;-1.81;100.00;99825.91;5108404;28;20057;-77
2023/01/22 07:05:21;;;;;;;22.80;12.02;;;;;;;-1.82;100.00;99836.66;5099151;28;20052;-78
2023/01/22 07:07:48;;;;;;;26.10;13.13;;;;;;;-1.89;100.00;99827.31;5105611;28;20047;-78
2023/01/22 07:10:16;;;;;;;23.05;11.18;;;;;;;-1.87;100.00;99839.56;5107299;28;20052;-77
2023/01/22 07:12:44;;;;;;;22.45;11.20;;;;;;;-1.87;100.00;99838.72;5091931;28;20066;-77
2023/01/22 07:15:10;;;;;;;24.45;11.63;;;;;;;-1.87;100.00;99834.25;5092226;28;20059;-77
2023/01/22 07:17:37;;;;;;;23.75;11.23;;;;;;;-1.72;100.00;99853.81;5106660;28;20391;-77
2023/01/22 07:20:04;;;;;;;25.00;11.30;;;;;;;-1.98;100.00;99824.22;5098943;28;20040;-77
2023/01/22 07:22:31;;;;;;;23.23;11.65;;;;;;;-1.86;100.00;99832.47;5107407;28;20051;-77
2023/01/22 07:24:59;;;;;;;25.50;12.48;;;;;;;-1.79;100.00;99853.34;5095660;28;20494;-77
2023/01/22 07:27:25;;;;;;;27.52;12.68;;;;;;;-1.77;100.00;99841.72;5105750;28;20036;-77
2023/01/22 07:29:53;;;;;;;24.48;11.50;;;;;;;-1.67;100.00;99856.22;5111443;28;20438;-77
2023/01/22 07:32:20;;;;;;;28.98;13.75;;;;;;;-1.70;100.00;99857.28;5105050;28;20047;-77
2023/01/22 07:34:46;;;;;;;29.25;13.98;;;;;;;-1.73;100.00;99860.13;5104957;28;20398;-77
2023/01/22 07:37:13;;;;;;;26.35;11.68;;;;;;;-1.68;100.00;99866.03;5108893;28;20040;-77
2023/01/22 07:39:39;;;;;;;31.98;12.43;;;;;;;-1.76;100.00;99848.75;5106422;28;20053;-77
2023/01/22 07:42:06;;;;;;;26.80;13.15;;;;;;;-1.80;100.00;99840.09;5109524;28;20119;-77
2023/01/22 07:44:32;;;;;;;33.72;14.30;;;;;;;-1.65;100.00;99849.84;5107660;28;20048;-77
2023/01/22 07:47:00;;;;;;;26.90;12.85;;;;;;;-1.48;100.00;99869.34;5107474;28;20073;-78
2023/01/22 07:49:27;;;;;;;29.15;13.65;;;;;;;-1.45;100.00;99869.16;5107963;28;20058;-77
2023/01/22 07:51:53;;;;;;;27.95;12.60;;;;;;;-1.48;100.00;99864.84;5108292;28;20092;-77
2023/01/22 07:54:20;;;;;;;30.60;13.13;;;;;;;-1.43;100.00;99868.13;5103474;28;20051;-78
2023/01/22 07:56:47;;;;;;;35.47;15.85;;;;;;;-1.47;100.00;99849.72;5106083;28;20048;-78
2023/01/22 07:59:13;;;;;;;38.72;16.05;;;;;;;-1.32;100.00;99862.13;5109954;28;20040;-77
2023/01/22 08:01:40;;;;;;;39.78;15.93;;;;;;;-1.41;100.00;99849.34;5108162;28;20044;-78
2023/01/22 08:04:08;;;;;;;32.28;15.38;;;;;;;-1.33;100.00;99857.75;5104724;28;20044;-78
2023/01/22 08:06:34;;;;;;;39.10;14.45;;;;;;;-1.37;100.00;99858.91;5102343;28;20051;-79
2023/01/22 08:09:01;;;;;;;29.85;12.15;;;;;;;-1.40;100.00;99859.09;5109510;28;20061;-78
2023/01/22 08:11:28;;;;;;;26.38;12.38;;;;;;;-1.17;100.00;99883.53;5109417;28;20044;-78
2023/01/22 08:13:54;;;;;;;30.88;14.25;;;;;;;-1.19;100.00;99874.72;5109992;28;20047;-78
2023/01/22 08:16:21;;;;;;;29.70;13.75;;;;;;;-1.18;100.00;99879.13;5111451;28;20043;-78
2023/01/22 08:18:48;;;;;;;36.70;15.85;;;;;;;-1.17;100.00;99863.03;5111701;28;20048;-78
2023/01/22 08:21:16;;;;;;;25.50;13.93;;;;;;;-1.03;100.00;99885.34;5112287;28;20054;-78
2023/01/22 08:23:46;;;;;;;30.02;13.90;;;;;;;-0.93;100.00;99886.50;5105475;28;20510;-78
2023/01/22 08:26:13;;;;;;;27.75;13.27;;;;;;;-1.01;100.00;99892.31;5110966;28;20054;-78
2023/01/22 08:28:40;;;;;;;32.78;13.95;;;;;;;-0.98;100.00;99905.47;5114143;28;20047;-78
2023/01/22 08:31:06;;;;;;;25.85;12.77;;;;;;;-1.06;100.00;99905.06;5112532;28;20039;-78
2023/01/22 08:33:34;;;;;;;29.65;13.07;;;;;;;-0.96;100.00;99900.03;5112042;28;20116;-78
2023/01/22 08:36:00;;;;;;;34.88;14.18;;;;;;;-0.87;100.00;99904.81;5114529;28;20498;-78
2023/01/22 08:38:28;;;;;;;34.10;14.35;;;;;;;-1.07;100.00;99898.88;5111759;28;20048;-78
2023/01/22 08:40:55;;;;;;;32.03;13.75;;;;;;;-0.78;100.00;99922.09;5106322;28;20066;-78
2023/01/22 08:43:24;;;;;;;30.80;14.27;;;;;;;-0.83;100.00;99903.66;5112173;28;20151;-78
2023/01/22 08:45:50;;;;;;;31.88;13.52;;;;;;;-0.84;100.00;99919.75;5115614;28;20901;-77
2023/01/22 08:48:17;;;;;;;31.50;14.18;;;;;;;-0.78;100.00;99912.25;5115794;28;20047;-76
2023/01/22 08:50:43;;;;;;;35.92;15.45;;;;;;;-1.01;100.00;99888.78;5114147;28;20051;-78
2023/01/22 08:53:10;;;;;;;37.28;16.60;;;;;;;-0.62;100.00;99921.97;5113044;28;20402;-78
2023/01/22 08:55:38;;;;;;;33.83;16.42;;;;;;;-0.72;100.00;99903.00;5114510;28;20494;-78
2023/01/22 08:58:05;;;;;;;33.67;15.32;;;;;;;-0.68;100.00;99917.03;5114749;28;20058;-78
2023/01/22 09:00:31;;;;;;;32.95;14.95;;;;;;;-0.72;100.00;99906.53;5099494;27;20483;-78
2023/01/22 09:02:58;;;;;;;31.05;14.25;;;;;;;-0.68;100.00;99914.34;5108185;28;20043;-78
2023/01/22 09:05:26;;;;;;;31.65;15.00;;;;;;;-0.67;100.00;99927.63;5111546;28;20394;-78
2023/01/22 09:07:53;;;;;;;29.73;13.00;;;;;;;-0.65;100.00;99927.50;5106757;28;20055;-78
2023/01/22 09:10:20;;;;;;;26.13;12.80;;;;;;;-0.47;100.00;99929.03;5115125;28;20500;-78
2023/01/22 09:12:48;;;;;;;28.98;13.93;;;;;;;-0.61;100.00;99910.34;5114357;28;20052;-78
2023/01/22 09:15:14;;;;;;;27.67;13.43;;;;;;;-0.49;100.00;99922.94;5115081;28;20050;-78
2023/01/22 09:17:41;;;;;;;28.33;13.45;;;;;;;-0.48;100.00;99905.09;5095605;28;20060;-78
2023/01/22 09:20:09;;;;;;;26.80;12.32;;;;;;;-0.40;100.00;99922.34;5103946;28;20047;-77
2023/01/22 09:22:35;;;;;;;26.40;13.95;;;;;;;-0.43;100.00;99925.22;5114257;28;20134;-78
2023/01/22 09:25:04;;;;;;;27.55;13.18;;;;;;;-0.48;100.00;99913.97;5113711;28;20051;-77
2023/01/22 09:27:30;;;;;;;30.88;14.27;;;;;;;-0.33;100.00;99925.53;5107780;28;20860;-77
2023/01/22 09:29:59;;;;;;;31.35;14.35;;;;;;;-0.15;100.00;99926.16;5108792;28;20054;-77
2023/01/22 09:32:26;;;;;;;35.67;17.02;;;;;;;-0.26;100.00;99915.28;5113749;28;20047;-77
2023/01/22 09:34:53;;;;;;;32.60;15.07;;;;;;;0.03;100.00;99936.63;5112380;28;20078;-78
2023/01/22 09:37:20;;;;;;;31.10;14.52;;;;;;;0.26;100.00;99927.13;5114378;28;20116;-77
2023/01/22 09:39:49;;;;;;;28.90;14.13;;;;;;;0.17;100.00;99907.19;5114701;28;20087;-78
2023/01/22 09:42:21;;;;;;;28.70;13.65;;;;;;;0.51;100.00;99935.25;5113616;28;20055;-77
2023/01/22 09:44:51;;;;;;;29.33;13.15;;;;;;;0.64;100.00;99927.25;5114445;28;20058;-78
2023/01/22 09:47:21;;;;;;;;;;;;;;;0.94;100.00;99930.66;5111421;28;20126;-78
2023/01/22 09:49:56;;;;;;;20.77;11.10;;;;;;;0.91;100.00;99904.94;5114828;28;20010;-78
2023/01/22 09:52:27;;;;;;;25.27;11.13;;;;;;;0.82;100.00;99945.72;5113619;28;20101;-79
2023/01/22 09:54:54;;;;;;;28.00;11.93;;;;;;;0.86;100.00;99929.34;5099273;28;20113;-78
2023/01/22 09:57:21;;;;;;;20.92;10.00;;;;;;;0.88;100.00;99950.66;5110170;28;20047;-78
2023/01/22 09:59:50;;;;;;;21.50;9.93;;;;;;;0.85;100.00;99956.22;5114262;28;20050;-78
2023/01/22 10:02:26;;;;;;;20.55;10.25;;;;;;;0.71;100.00;99917.00;5090320;27;20059;-79
2023/01/22 10:04:59;;;;;;;25.52;10.70;;;;;;;0.94;100.00;99931.50;5105423;28;20087;-79
2023/01/22 10:07:31;;;;;;;23.02;11.00;;;;;;;1.02;100.00;99934.53;5112006;28;20047;-79
2023/01/22 10:10:03;;;;;;;21.55;10.40;;;;;;;0.85;100.00;99938.31;5103589;28;20066;-79
2023/01/22 10:12:30;;;;;;;24.45;11.18;;;;;;;0.90;100.00;99938.00;5110687;28;20047;-79
2023/01/22 10:14:57;;;;;;;24.05;10.85;;;;;;;0.82;100.00;99954.59;5111525;28;20043;-79
2023/01/22 10:17:32;;;;;;;18.08;9.18;;;;;;;0.62;100.00;99947.91;5111322;28;20055;-79
2023/01/22 10:20:03;;;;;;;18.58;8.35;;;;;;;0.47;100.00;99948.94;5111477;28;20112;-79
2023/01/22 10:22:30;;;;;;;18.67;9.50;;;;;;;0.45;100.00;99942.81;5109877;28;20055;-78
2023/01/22 10:24:57;;;;;;;20.35;9.15;;;;;;;0.60;100.00;99970.38;5111971;28;20047;-79
2023/01/22 10:27:35;;;;;;;18.95;9.30;;;;;;;0.42;100.00;99964.41;5112153;28;20618;-79
2023/01/22 10:30:18;;;;;;;18.20;8.80;;;;;;;0.33;100.00;99961.41;5110393;28;20047;-79
2023/01/22 10:32:58;;;;;;;14.73;7.35;;;;;;;0.21;100.00;99932.78;5103660;28;20146;-79
2023/01/22 10:35:30;;;;;;;19.13;9.20;;;;;;;0.32;100.00;99942.78;5105576;28;20132;-78
2023/01/22 10:37:58;;;;;;;17.05;9.38;;;;;;;0.32;100.00;99953.47;5111143;28;20070;-78
2023/01/22 10:40:27;;;;;;;16.90;9.30;;;;;;;0.27;100.00;99956.44;5107089;28;20047;-78
2023/01/22 10:43:02;;;;;;;19.52;8.48;;;;;;;0.17;100.00;99952.66;5090902;28;20048;-78
2023/01/22 10:45:31;;;;;;;17.17;8.75;;;;;;;0.12;100.00;99934.22;5105612;28;20043;-78
2023/01/22 10:48:14;;;;;;;13.10;6.18;;;;;;;0.12;100.00;99971.66;5111100;28;20414;-78
2023/01/22 10:50:41;;;;;;;16.23;8.23;;;;;;;0.01;100.00;99962.59;5110591;28;20100;-78
2023/01/22 10:53:18;;;;;;;13.07;6.43;;;;;;;0.10;100.00;99968.22;5102659;28;20040;-78
2023/01/22 10:55:52;;;;;;;20.38;8.68;;;;;;;0.07;100.00;99959.53;5103730;28;20168;-78
2023/01/22 10:58:21;;;;;;;19.00;7.18;;;;;;;0.17;100.00;99964.19;5111002;28;20579;-78
2023/01/22 11:00:58;;;;;;;17.40;8.32;;;;;;;0.25;100.00;99977.06;5111383;28;20497;-78
2023/01/22 11:03:32;;;;;;;15.40;7.47;;;;;;;0.28;100.00;99944.75;5110146;28;20597;-79
2023/01/22 11:06:05;;;;;;;15.32;7.90;;;;;;;0.19;100.00;99952.53;5109301;28;20134;-78
2023/01/22 11:08:43;;;;;;;14.30;7.53;;;;;;;0.29;100.00;99946.50;5108293;28;20048;-78
2023/01/22 11:11:14;;;;;;;18.45;7.72;;;;;;;0.44;100.00;99941.97;5111544;28;20071;-78
2023/01/22 11:13:50;;;;;;;34.72;15.98;;;;;;;0.33;100.00;99933.75;5105853;28;20043;-79
2023/01/22 11:16:21;;;;;;;16.90;8.88;;;;;;;0.58;100.00;99956.25;5110116;28;20043;-78
2023/01/22 11:18:55;;;;;;;15.48;8.23;;;;;;;0.67;100.00;99953.78;5101813;28;20047;-78
2023/01/22 11:21:27;;;;;;;15.35;8.77;;;;;;;0.68;100.00;99942.16;5110883;28;20043;-79
2023/01/22 11:24:01;;;;;;;13.32;6.93;;;;;;;0.70;100.00;99950.91;5109629;28;20040;-79